createdAt,value
2019-06-01T00:00:31.644Z,0
2019-06-01T00:03:00.106Z,0
2019-06-01T00:04:14.180Z,0
2019-06-01T00:06:42.553Z,0
2019-06-01T00:07:56.693Z,0
2019-06-01T00:09:10.979Z,0
2019-06-01T00:10:25.068Z,0
2019-06-01T00:11:39.231Z,0
2019-06-01T00:12:53.387Z,0
2019-06-01T00:14:07.633Z,0
2019-06-01T00:15:21.824Z,0
2019-06-01T00:16:36.205Z,0
2019-06-01T00:19:04.269Z,0
2019-06-01T00:20:21.748Z,0
2019-06-01T00:21:32.617Z,0
2019-06-01T00:22:46.805Z,0
2019-06-01T00:24:01.083Z,0
2019-06-01T00:25:15.144Z,0
2019-06-01T00:26:29.333Z,0
2019-06-01T00:27:43.597Z,0
2019-06-01T00:28:57.696Z,0
2019-06-01T00:30:11.889Z,0
2019-06-01T00:31:26.096Z,0
2019-06-01T00:32:40.311Z,0
2019-06-01T00:35:08.582Z,0
2019-06-01T00:36:22.774Z,0
2019-06-01T00:37:36.952Z,0
2019-06-01T00:38:51.217Z,0
2019-06-01T00:41:19.519Z,0
2019-06-01T00:43:47.961Z,0
2019-06-01T00:45:02.167Z,0
2019-06-01T00:46:16.233Z,0
2019-06-01T00:47:30.512Z,0
2019-06-01T00:48:44.583Z,0
2019-06-01T00:49:58.960Z,0
2019-06-01T00:51:12.945Z,0
2019-06-01T00:53:41.307Z,0
2019-06-01T00:54:55.498Z,0
2019-06-01T00:57:23.921Z,0
2019-06-01T00:58:38.108Z,0
2019-06-01T00:59:52.238Z,0
2019-06-01T01:01:06.375Z,0
2019-06-01T01:02:20.558Z,0
2019-06-01T01:03:34.817Z,0
2019-06-01T01:04:49.041Z,0
2019-06-01T01:06:03.293Z,0
2019-06-01T01:07:17.291Z,0
2019-06-01T01:08:31.493Z,0
2019-06-01T01:09:45.646Z,0
2019-06-01T01:10:59.814Z,0
2019-06-01T01:12:14.068Z,0
2019-06-01T01:13:28.241Z,0
2019-06-01T01:14:42.381Z,0
2019-06-01T01:15:56.622Z,0
2019-06-01T01:17:10.728Z,0
2019-06-01T01:18:24.909Z,0
2019-06-01T01:19:39.092Z,0
2019-06-01T01:20:53.419Z,0
2019-06-01T01:22:07.465Z,0
2019-06-01T01:23:21.641Z,0
2019-06-01T01:24:35.833Z,0
2019-06-01T01:25:50.045Z,0
2019-06-01T01:27:04.293Z,0
2019-06-01T01:29:32.585Z,0
2019-06-01T01:30:46.873Z,0
2019-06-01T01:32:00.939Z,0
2019-06-01T01:33:15.128Z,0
2019-06-01T01:34:29.421Z,0
2019-06-01T01:35:43.578Z,0
2019-06-01T01:36:57.673Z,0
2019-06-01T01:38:12.030Z,0
2019-06-01T01:39:26.048Z,0
2019-06-01T01:40:40.236Z,0
2019-06-01T01:43:08.690Z,0
2019-06-01T01:44:23.678Z,0
2019-06-01T01:45:36.955Z,0
2019-06-01T01:46:51.270Z,0
2019-06-01T01:48:05.298Z,0
2019-06-01T01:49:19.466Z,0
2019-06-01T01:50:33.751Z,0
2019-06-01T01:51:47.834Z,0
2019-06-01T01:53:02.019Z,0
2019-06-01T01:55:30.393Z,0
2019-06-01T01:56:44.569Z,0
2019-06-01T01:57:58.729Z,0
2019-06-01T01:59:12.990Z,0
2019-06-01T02:00:27.163Z,0
2019-06-01T02:01:41.280Z,0
2019-06-01T02:02:55.533Z,0
2019-06-01T02:04:09.646Z,0
2019-06-01T02:05:23.828Z,0
2019-06-01T02:07:52.214Z,0
2019-06-01T02:09:06.348Z,0
2019-06-01T02:10:22.236Z,0
2019-06-01T02:11:34.696Z,0
2019-06-01T02:12:48.985Z,0
2019-06-01T02:14:03.060Z,0
2019-06-01T02:15:17.244Z,0
2019-06-01T02:16:31.425Z,0
2019-06-01T02:17:45.597Z,0
2019-06-01T02:18:59.795Z,0
2019-06-01T02:20:13.962Z,0
2019-06-01T02:21:28.129Z,0
2019-06-01T02:22:42.339Z,0
2019-06-01T02:23:56.517Z,0
2019-06-01T02:25:10.703Z,0
2019-06-01T02:26:24.879Z,0
2019-06-01T02:27:40.198Z,0
2019-06-01T02:28:53.256Z,0
2019-06-01T02:30:07.414Z,0
2019-06-01T02:32:35.770Z,0
2019-06-01T02:33:49.955Z,4
2019-06-01T02:35:04.123Z,4
2019-06-01T02:36:18.314Z,4
2019-06-01T02:37:32.575Z,4
2019-06-01T02:38:46.672Z,4
2019-06-01T02:41:15.026Z,8
2019-06-01T02:42:29.326Z,8
2019-06-01T02:44:57.585Z,8
2019-06-01T02:46:11.849Z,12
2019-06-01T02:47:25.941Z,16
2019-06-01T02:48:40.286Z,16
2019-06-01T02:49:54.300Z,20
2019-06-01T02:51:08.478Z,20
2019-06-01T02:52:22.691Z,24
2019-06-01T02:53:36.847Z,28
2019-06-01T02:54:51.152Z,36
2019-06-01T02:57:19.524Z,48
2019-06-01T02:58:33.588Z,56
2019-06-01T02:59:47.774Z,60
2019-06-01T03:01:02.003Z,72
2019-06-01T03:02:16.134Z,84
2019-06-01T03:03:30.310Z,92
2019-06-01T03:04:44.517Z,108
2019-06-01T03:05:58.779Z,124
2019-06-01T03:07:12.952Z,140
2019-06-01T03:08:27.038Z,160
2019-06-01T03:09:41.266Z,184
2019-06-01T03:10:55.414Z,204
2019-06-01T03:12:09.714Z,228
2019-06-01T03:13:23.789Z,252
2019-06-01T03:14:38.053Z,280
2019-06-01T03:15:52.173Z,304
2019-06-01T03:18:20.587Z,368
2019-06-01T03:19:34.804Z,404
2019-06-01T03:20:48.878Z,448
2019-06-01T03:22:03.068Z,488
2019-06-01T03:23:17.265Z,540
2019-06-01T03:24:31.508Z,596
2019-06-01T03:25:45.618Z,652
2019-06-01T03:26:59.861Z,720
2019-06-01T03:28:14.047Z,784
2019-06-01T03:29:28.258Z,856
2019-06-01T03:30:42.368Z,936
2019-06-01T03:31:56.531Z,1020
2019-06-01T03:34:25.229Z,1196
2019-06-01T03:35:39.093Z,1288
2019-06-01T03:36:53.305Z,1376
2019-06-01T03:38:07.461Z,1460
2019-06-01T03:39:21.959Z,1548
2019-06-01T03:40:35.903Z,1632
2019-06-01T03:43:04.195Z,1804
2019-06-01T03:44:18.465Z,1880
2019-06-01T03:46:46.738Z,2040
2019-06-01T03:48:00.903Z,2132
2019-06-01T03:49:15.142Z,2212
2019-06-01T03:50:29.232Z,2292
2019-06-01T03:51:43.553Z,2376
2019-06-01T03:52:57.626Z,2468
2019-06-01T03:54:11.759Z,2552
2019-06-01T03:55:25.991Z,2632
2019-06-01T03:56:40.124Z,2704
2019-06-01T03:57:54.300Z,2772
2019-06-01T03:59:08.495Z,2836
2019-06-01T04:00:22.744Z,2884
2019-06-01T04:01:36.816Z,2924
2019-06-01T04:02:51.057Z,2980
2019-06-01T04:04:05.376Z,3052
2019-06-01T04:05:19.442Z,3088
2019-06-01T04:06:33.525Z,3116
2019-06-01T04:07:47.721Z,3148
2019-06-01T04:09:01.975Z,3232
2019-06-01T04:11:30.390Z,3448
2019-06-01T04:12:44.421Z,3556
2019-06-01T04:13:58.615Z,3648
2019-06-01T04:15:12.890Z,3736
2019-06-01T04:16:27.034Z,3840
2019-06-01T04:17:41.127Z,3952
2019-06-01T04:18:55.395Z,4060
2019-06-01T04:20:09.481Z,4200
2019-06-01T04:21:23.741Z,4364
2019-06-01T04:22:37.824Z,4496
2019-06-01T04:23:52.120Z,4636
2019-06-01T04:25:06.264Z,4764
2019-06-01T04:27:34.533Z,5020
2019-06-01T04:28:48.738Z,5156
2019-06-01T04:30:05.571Z,5240
2019-06-01T04:31:17.084Z,5348
2019-06-01T04:32:31.312Z,5496
2019-06-01T04:33:45.424Z,5548
2019-06-01T04:36:13.861Z,5628
2019-06-01T04:37:28.018Z,5672
2019-06-01T04:38:42.135Z,5744
2019-06-01T04:39:56.399Z,5764
2019-06-01T04:41:10.579Z,5932
2019-06-01T04:42:24.621Z,6036
2019-06-01T04:43:38.854Z,6060
2019-06-01T04:44:52.964Z,5992
2019-06-01T04:46:07.151Z,5724
2019-06-01T04:47:21.283Z,5472
2019-06-01T04:48:35.463Z,5488
2019-06-01T04:49:49.635Z,5352
2019-06-01T04:51:06.427Z,5120
2019-06-01T04:52:18.039Z,4932
2019-06-01T04:53:32.250Z,4936
2019-06-01T04:54:46.299Z,4696
2019-06-01T04:56:00.459Z,4416
2019-06-01T04:57:14.648Z,4288
2019-06-01T04:58:28.777Z,4400
2019-06-01T05:00:57.173Z,4400
2019-06-01T05:02:11.247Z,4524
2019-06-01T05:04:39.670Z,4328
2019-06-01T05:05:53.847Z,4604
2019-06-01T05:07:07.941Z,4872
2019-06-01T05:08:22.109Z,5304
2019-06-01T05:09:36.244Z,5544
2019-06-01T05:10:50.474Z,5732
2019-06-01T05:12:04.500Z,5872
2019-06-01T05:13:18.685Z,6016
2019-06-01T05:15:46.962Z,6636
2019-06-01T05:17:01.138Z,6900
2019-06-01T05:18:15.271Z,7004
2019-06-01T05:19:29.414Z,7224
2019-06-01T05:20:43.619Z,7324
2019-06-01T05:21:57.711Z,7348
2019-06-01T05:23:11.950Z,7756
2019-06-01T05:24:26.016Z,7884
2019-06-01T05:25:40.162Z,8064
2019-06-01T05:26:54.377Z,8180
2019-06-01T05:28:08.448Z,8284
2019-06-01T05:29:22.636Z,8424
2019-06-01T05:30:36.741Z,8556
2019-06-01T05:31:50.940Z,8664
2019-06-01T05:33:05.157Z,8812
2019-06-01T05:34:19.172Z,8920
2019-06-01T05:35:33.311Z,8840
2019-06-01T05:36:47.414Z,8844
2019-06-01T05:40:29.973Z,8912
2019-06-01T05:41:43.920Z,8944
2019-06-01T05:42:58.204Z,8864
2019-06-01T05:44:12.183Z,8644
2019-06-01T05:46:40.436Z,8480
2019-06-01T05:47:54.566Z,8592
2019-06-01T05:49:08.669Z,9108
2019-06-01T05:50:22.809Z,9308
2019-06-01T05:51:36.912Z,9060
2019-06-01T05:52:51.127Z,9512
2019-06-01T05:54:05.148Z,9864
2019-06-01T05:55:19.366Z,10172
2019-06-01T05:56:33.387Z,11260
2019-06-01T05:57:47.507Z,12688
2019-06-01T05:59:01.668Z,11436
2019-06-01T06:00:15.764Z,14240
2019-06-01T06:01:29.881Z,12892
2019-06-01T06:02:43.972Z,13480
2019-06-01T06:03:58.185Z,13404
2019-06-01T06:05:12.200Z,11664
2019-06-01T06:06:26.333Z,11216
2019-06-01T06:08:54.533Z,9388
2019-06-01T06:10:08.667Z,11060
2019-06-01T06:11:22.758Z,10312
2019-06-01T06:12:36.877Z,11220
2019-06-01T06:13:51.011Z,11520
2019-06-01T06:16:19.236Z,12012
2019-06-01T06:17:33.390Z,12204
2019-06-01T06:18:47.420Z,12540
2019-06-01T06:20:01.627Z,12616
2019-06-01T06:21:15.643Z,12668
2019-06-01T06:23:43.822Z,13172
2019-06-01T06:24:58.533Z,13136
2019-06-01T06:26:12.142Z,14288
2019-06-01T06:27:26.142Z,18560
2019-06-01T06:28:40.197Z,17952
2019-06-01T06:29:54.265Z,18816
2019-06-01T06:31:08.367Z,20928
2019-06-01T06:32:22.447Z,20736
2019-06-01T06:33:36.642Z,19104
2019-06-01T06:34:50.653Z,20352
2019-06-01T06:36:04.748Z,19104
2019-06-01T06:37:18.813Z,16064
2019-06-01T06:39:46.991Z,14744
2019-06-01T06:41:01.074Z,14624
2019-06-01T06:42:15.166Z,14700
2019-06-01T06:43:29.336Z,17312
2019-06-01T06:44:43.500Z,19040
2019-06-01T06:45:57.416Z,19424
2019-06-01T06:47:11.496Z,19776
2019-06-01T06:48:25.632Z,20352
2019-06-01T06:49:39.671Z,20224
2019-06-01T06:50:53.788Z,20960
2019-06-01T06:54:36.051Z,21696
2019-06-01T06:57:04.140Z,21920
2019-06-01T06:58:18.260Z,20896
2019-06-01T06:59:32.301Z,20992
2019-06-01T07:02:00.456Z,24640
2019-06-01T07:03:14.557Z,25056
2019-06-01T07:04:30.261Z,24832
2019-06-01T07:05:44.598Z,26176
2019-06-01T07:06:59.254Z,25152
2019-06-01T07:08:13.321Z,24832
2019-06-01T07:09:27.545Z,25824
2019-06-01T07:10:39.016Z,25920
2019-06-01T07:11:52.993Z,27584
2019-06-01T07:13:07.164Z,27584
2019-06-01T07:15:35.202Z,28384
2019-06-01T07:16:49.264Z,27104
2019-06-01T07:18:03.390Z,27616
2019-06-01T07:19:17.458Z,29088
2019-06-01T07:20:31.454Z,29824
2019-06-01T07:21:45.501Z,29888
2019-06-01T07:22:59.741Z,30560
2019-06-01T07:24:13.787Z,30016
2019-06-01T07:25:27.732Z,31520
2019-06-01T07:26:41.805Z,32416
2019-06-01T07:27:55.909Z,33088
2019-06-01T07:30:23.948Z,32640
2019-06-01T07:31:38.042Z,32832
2019-06-01T07:32:52.146Z,33312
2019-06-01T07:34:06.208Z,32608
2019-06-01T07:35:20.636Z,33376
2019-06-01T07:37:48.278Z,33184
2019-06-01T07:39:02.328Z,34208
2019-06-01T07:41:30.438Z,35584
2019-06-01T07:43:58.574Z,36032
2019-06-01T07:45:12.616Z,35200
2019-06-01T07:46:26.672Z,35936
2019-06-01T07:47:40.710Z,35840
2019-06-01T07:48:59.368Z,35968
2019-06-01T07:50:12.442Z,34848
2019-06-01T07:51:22.852Z,33792
2019-06-01T07:52:36.989Z,35040
2019-06-01T07:53:50.928Z,35520
2019-06-01T07:55:08.015Z,28000
2019-06-01T07:56:19.134Z,36896
2019-06-01T07:57:33.032Z,38080
2019-06-01T07:58:47.061Z,42304
2019-06-01T08:00:01.106Z,41664
2019-06-01T08:01:15.153Z,39648
2019-06-01T08:02:29.207Z,42528
2019-06-01T08:03:43.309Z,41792
2019-06-01T08:07:25.335Z,43072
2019-06-01T08:08:39.353Z,43456
2019-06-01T08:09:53.418Z,45504
2019-06-01T08:11:07.555Z,46752
2019-06-01T08:12:21.573Z,50464
2019-06-01T08:13:35.548Z,54752
2019-06-01T08:14:49.544Z,55360
2019-06-01T08:16:03.608Z,58112
2019-06-01T08:17:17.708Z,59264
2019-06-01T08:18:31.670Z,60288
2019-06-01T08:19:45.663Z,61472
2019-06-01T08:20:59.698Z,46656
2019-06-01T08:22:13.760Z,47424
2019-06-01T08:23:27.773Z,41056
2019-06-01T08:24:41.799Z,34112
2019-06-01T08:25:55.800Z,31584
2019-06-01T08:28:23.972Z,30784
2019-06-01T08:29:37.965Z,33440
2019-06-01T08:30:52.091Z,31520
2019-06-01T08:32:06.085Z,30176
2019-06-01T08:33:20.088Z,25408
2019-06-01T08:34:34.139Z,31424
2019-06-01T08:35:48.206Z,29792
2019-06-01T08:37:02.248Z,38400
2019-06-01T08:38:16.375Z,41632
2019-06-01T08:39:38.133Z,51104
2019-06-01T08:40:44.504Z,50656
2019-06-01T08:41:58.451Z,48768
2019-06-01T08:43:15.031Z,50016
2019-06-01T08:44:26.548Z,52032
2019-06-01T08:45:40.596Z,58400
2019-06-01T08:46:54.603Z,51200
2019-06-01T08:48:08.657Z,47648
2019-06-01T08:49:22.658Z,47712
2019-06-01T08:50:36.736Z,48704
2019-06-01T08:51:50.726Z,48672
2019-06-01T08:53:04.770Z,43904
2019-06-01T08:54:18.784Z,49536
2019-06-01T08:55:32.832Z,53856
2019-06-01T08:56:46.854Z,53408
2019-06-01T08:58:00.955Z,58016
2019-06-01T08:59:14.886Z,62528
2019-06-01T09:00:28.909Z,62304
2019-06-01T09:01:42.939Z,64832
2019-06-01T09:02:56.974Z,66432
2019-06-01T09:04:10.983Z,57312
2019-06-01T09:05:25.015Z,64928
2019-06-01T09:06:39.130Z,65536
2019-06-01T09:07:53.169Z,65920
2019-06-01T09:09:07.095Z,67328
2019-06-01T09:10:21.151Z,67744
2019-06-01T09:11:35.112Z,69440
2019-06-01T09:12:49.131Z,24640
2019-06-01T09:14:03.169Z,70688
2019-06-01T09:15:17.251Z,73696
2019-06-01T09:16:31.311Z,71296
2019-06-01T09:17:45.229Z,72768
2019-06-01T09:19:00.427Z,69312
2019-06-01T09:20:13.243Z,71808
2019-06-01T09:21:27.357Z,74272
2019-06-01T09:22:46.685Z,75616
2019-06-01T09:23:55.289Z,76160
2019-06-01T09:25:09.309Z,73632
2019-06-01T09:26:23.397Z,71936
2019-06-01T09:27:37.351Z,70496
2019-06-01T09:28:51.329Z,67968
2019-06-01T09:30:05.334Z,73248
2019-06-01T09:31:19.429Z,72544
2019-06-01T09:32:33.385Z,73312
2019-06-01T09:33:47.445Z,73600
2019-06-01T09:35:06.163Z,76192
2019-06-01T09:36:15.382Z,73280
2019-06-01T09:37:29.386Z,73184
2019-06-01T09:38:43.411Z,75904
2019-06-01T09:39:57.400Z,73824
2019-06-01T09:41:11.463Z,75520
2019-06-01T09:42:25.461Z,77920
2019-06-01T09:43:39.526Z,78112
2019-06-01T09:44:53.431Z,79808
2019-06-01T09:46:07.424Z,76160
2019-06-01T09:47:21.423Z,75264
2019-06-01T09:48:35.561Z,79648
2019-06-01T09:49:49.560Z,76256
2019-06-01T09:51:03.517Z,79232
2019-06-01T09:52:17.742Z,79520
2019-06-01T09:53:31.501Z,75872
2019-06-01T09:54:45.467Z,77952
2019-06-01T09:55:59.482Z,77216
2019-06-01T09:57:13.449Z,80192
2019-06-01T09:58:27.440Z,78944
2019-06-01T09:59:41.437Z,80320
2019-06-01T10:00:55.463Z,81920
2019-06-01T10:02:09.452Z,78336
2019-06-01T10:03:23.450Z,79008
2019-06-01T10:04:37.454Z,78560
2019-06-01T10:05:51.609Z,77920
2019-06-01T10:07:05.436Z,78880
2019-06-01T10:08:19.442Z,80896
2019-06-01T10:09:33.436Z,82016
2019-06-01T10:10:47.424Z,79136
2019-06-01T10:13:15.423Z,83200
2019-06-01T10:14:29.489Z,82176
2019-06-01T10:15:43.413Z,80512
2019-06-01T10:16:57.425Z,85024
2019-06-01T10:18:11.405Z,83136
2019-06-01T10:20:39.392Z,85472
2019-06-01T10:21:53.389Z,85984
2019-06-01T10:23:07.410Z,88736
2019-06-01T10:24:21.344Z,90688
2019-06-01T10:25:35.473Z,91584
2019-06-01T10:28:03.476Z,90656
2019-06-01T10:29:17.367Z,93376
2019-06-01T10:30:35.975Z,90560
2019-06-01T10:31:50.337Z,89888
2019-06-01T10:35:27.362Z,83040
2019-06-01T10:36:41.466Z,87808
2019-06-01T10:37:55.383Z,88480
2019-06-01T10:39:09.352Z,88032
2019-06-01T10:40:23.398Z,90528
2019-06-01T10:41:37.390Z,89312
2019-06-01T10:42:51.363Z,94688
2019-06-01T10:44:05.371Z,91808
2019-06-01T10:45:19.330Z,91808
2019-06-01T10:46:33.338Z,92928
2019-06-01T10:47:47.420Z,92672
2019-06-01T10:49:01.320Z,93152
2019-06-01T10:50:15.332Z,94848
2019-06-01T10:51:29.326Z,97024
2019-06-01T10:52:43.315Z,94048
2019-06-01T10:53:57.715Z,94624
2019-06-01T10:55:11.536Z,95008
2019-06-01T10:57:39.333Z,95584
2019-06-01T10:58:53.414Z,98016
2019-06-01T11:00:07.451Z,92992
2019-06-01T11:01:21.408Z,95008
2019-06-01T11:02:35.331Z,94176
2019-06-01T11:05:06.190Z,97696
2019-06-01T11:06:17.332Z,100704
2019-06-01T11:07:31.569Z,97056
2019-06-01T11:08:45.326Z,95712
2019-06-01T11:09:59.325Z,97120
2019-06-01T11:13:41.347Z,98432
2019-06-01T11:14:55.428Z,99136
2019-06-01T11:16:09.347Z,100256
2019-06-01T11:17:23.356Z,97696
2019-06-01T11:19:51.385Z,98080
2019-06-01T11:21:05.372Z,101888
2019-06-01T11:23:33.405Z,93952
2019-06-01T11:27:15.450Z,92800
2019-06-01T11:28:29.438Z,91200
2019-06-01T11:29:43.465Z,98688
2019-06-01T11:30:57.580Z,101920
2019-06-01T11:32:11.481Z,107136
2019-06-01T11:34:39.521Z,109504
2019-06-01T11:35:53.514Z,110944
2019-06-01T11:37:07.499Z,107744
2019-06-01T11:38:21.518Z,104864
2019-06-01T11:39:39.316Z,105216
2019-06-01T11:42:03.619Z,106048
2019-06-01T11:43:22.962Z,106432
2019-06-01T11:44:36.563Z,104704
2019-06-01T11:45:45.622Z,103776
2019-06-01T11:46:59.649Z,104224
2019-06-01T11:48:13.533Z,104096
2019-06-01T11:49:27.534Z,101600
2019-06-01T11:50:41.546Z,104224
2019-06-01T11:51:55.542Z,106944
2019-06-01T11:53:09.561Z,102656
2019-06-01T11:54:23.568Z,112288
2019-06-01T11:55:37.667Z,107488
2019-06-01T11:56:51.666Z,106848
2019-06-01T11:58:05.667Z,108640
2019-06-01T11:59:19.609Z,108352
2019-06-01T12:00:33.602Z,105024
2019-06-01T12:01:47.628Z,104896
2019-06-01T12:03:01.751Z,107808
2019-06-01T12:04:15.626Z,104096
2019-06-01T12:05:29.614Z,100128
2019-06-01T12:06:43.629Z,98528
2019-06-01T12:07:57.743Z,106336
2019-06-01T12:09:11.735Z,107520
2019-06-01T12:10:25.634Z,109728
2019-06-01T12:11:39.707Z,103168
2019-06-01T12:12:53.670Z,108320
2019-06-01T12:14:07.656Z,102880
2019-06-01T12:15:21.648Z,107872
2019-06-01T12:16:35.646Z,107072
2019-06-01T12:17:49.669Z,106368
2019-06-01T12:19:03.664Z,104832
2019-06-01T12:20:18.483Z,105216
2019-06-01T12:21:31.647Z,109024
2019-06-01T12:22:45.657Z,110880
2019-06-01T12:23:59.740Z,110816
2019-06-01T12:25:13.796Z,106528
